createdAt,value
2018-08-11T00:04:55.582Z,18.2
2018-08-11T00:09:55.792Z,18.2
2018-08-11T00:14:55.738Z,18.2
2018-08-11T00:19:56.021Z,18.2
2018-08-11T00:24:55.948Z,18.2
2018-08-11T00:29:55.924Z,18.2
2018-08-11T00:34:55.819Z,18.2
2018-08-11T00:39:55.762Z,18.2
2018-08-11T00:44:55.793Z,18.2
2018-08-11T00:49:55.826Z,18.2
2018-08-11T00:54:55.607Z,18.2
2018-08-11T00:59:55.581Z,18.2
2018-08-11T01:04:55.745Z,18.2
2018-08-11T01:09:55.835Z,18.2
2018-08-11T01:14:55.656Z,18.2
2018-08-11T01:19:55.761Z,18.2
2018-08-11T01:24:55.517Z,18.2
2018-08-11T01:29:55.591Z,18.2
2018-08-11T01:34:55.581Z,18.2
2018-08-11T01:39:55.929Z,18.2
2018-08-11T01:44:55.629Z,18.2
2018-08-11T01:49:55.717Z,18.2
2018-08-11T01:54:55.663Z,18.2
2018-08-11T01:59:55.781Z,18.2
2018-08-11T02:04:55.505Z,18.2
2018-08-11T02:09:55.842Z,18.2
2018-08-11T02:14:55.799Z,18.2
2018-08-11T02:19:55.550Z,18.2
2018-08-11T02:24:55.553Z,18.2
2018-08-11T02:29:55.748Z,18.2
2018-08-11T02:34:55.644Z,18.2
2018-08-11T02:39:55.388Z,18.2
2018-08-11T02:44:55.356Z,18.2
2018-08-11T02:49:55.540Z,18.2
2018-08-11T02:54:55.438Z,18.2
2018-08-11T02:59:55.447Z,18.2
2018-08-11T03:04:55.628Z,18.2
2018-08-11T03:09:55.499Z,18.2
2018-08-11T03:14:55.366Z,18.2
2018-08-11T03:19:55.605Z,18.2
2018-08-11T03:24:55.573Z,18.2
2018-08-11T03:29:55.457Z,18.2
2018-08-11T03:34:55.301Z,18.2
2018-08-11T03:39:55.599Z,18.2
2018-08-11T03:44:55.465Z,18.2
2018-08-11T03:49:55.528Z,18.2
2018-08-11T03:54:55.312Z,18.2
2018-08-11T03:59:55.422Z,18.2
2018-08-11T04:04:55.373Z,18.2
2018-08-11T04:09:55.690Z,18.2
2018-08-11T04:14:55.630Z,18.2
2018-08-11T04:19:55.313Z,18.2
2018-08-11T04:24:55.501Z,18.2
2018-08-11T04:29:55.526Z,18.2
2018-08-11T04:34:55.243Z,18.2
2018-08-11T04:39:55.304Z,18.2
2018-08-11T04:44:55.547Z,18.2
2018-08-11T04:49:55.537Z,18.2
2018-08-11T04:54:55.203Z,18.2
2018-08-11T04:59:55.231Z,18.2
2018-08-11T05:04:55.362Z,18.2
2018-08-11T05:09:55.388Z,18.2
2018-08-11T05:14:55.522Z,18.2
2018-08-11T05:19:55.576Z,18.2
2018-08-11T05:24:55.384Z,18.2
2018-08-11T05:29:55.516Z,18.2
2018-08-11T05:34:55.396Z,18.2
2018-08-11T05:39:55.343Z,18.2
2018-08-11T05:44:55.208Z,18.2
2018-08-11T05:49:55.418Z,18.2
2018-08-11T05:54:55.260Z,18.2
2018-08-11T05:59:55.397Z,18.2
2018-08-11T06:04:55.108Z,18.2
2018-08-11T06:09:55.342Z,18.2
2018-08-11T06:14:55.317Z,18.2
2018-08-11T06:19:55.328Z,18.2
2018-08-11T06:24:55.356Z,18.2
2018-08-11T06:29:55.330Z,18.2
2018-08-11T06:34:55.287Z,18.2
2018-08-11T06:39:55.137Z,18.2
2018-08-11T06:44:55.340Z,18.2
2018-08-11T06:49:55.005Z,18.2
2018-08-11T06:54:55.045Z,18.2
2018-08-11T06:59:55.264Z,18.2
2018-08-11T07:04:55.363Z,18.2
2018-08-11T07:09:55.335Z,18.2
2018-08-11T07:14:55.237Z,18.2
2018-08-11T07:19:55.130Z,18.2
2018-08-11T07:24:55.388Z,18.2
2018-08-11T07:29:55.292Z,18.2
2018-08-11T07:34:54.970Z,18.2
2018-08-11T07:39:55.432Z,18.2
2018-08-11T07:44:55.014Z,18.2
2018-08-11T07:49:55.190Z,18.2
2018-08-11T07:54:55.209Z,18.2
2018-08-11T07:59:54.974Z,18.2
2018-08-11T08:04:55.226Z,18.2
2018-08-11T08:09:55.193Z,18.2
2018-08-11T08:14:55.232Z,18.2
2018-08-11T08:19:55.166Z,18.2
2018-08-11T08:24:55.123Z,18.2
2018-08-11T08:29:54.895Z,18.2
2018-08-11T08:34:55.142Z,18.2
2018-08-11T08:39:55.070Z,18.2
2018-08-11T08:44:54.953Z,18.2
2018-08-11T08:49:55.054Z,18.2
2018-08-11T08:54:54.971Z,18.2
2018-08-11T08:59:55.059Z,18.2
2018-08-11T09:04:55.030Z,18.2
2018-08-11T09:09:54.887Z,18.2
2018-08-11T09:14:54.948Z,18.2
2018-08-11T09:19:54.910Z,18.2
2018-08-11T09:24:54.839Z,18
2018-08-11T09:29:55.044Z,18
2018-08-11T09:34:55.113Z,18
2018-08-11T09:39:55.021Z,18
2018-08-11T09:44:54.788Z,18
2018-08-11T09:49:54.961Z,18
2018-08-11T09:54:54.866Z,18
2018-08-11T09:59:55.099Z,18.7
2018-08-11T10:04:54.859Z,18.7
2018-08-11T10:09:55.037Z,18.7
2018-08-11T10:14:54.768Z,18.7
2018-08-11T10:19:54.858Z,18.7
2018-08-11T10:24:54.757Z,18.7
2018-08-11T10:29:54.705Z,18.7
2018-08-11T10:34:54.971Z,18.7
2018-08-11T10:39:55.105Z,18.7
2018-08-11T10:44:54.660Z,19.8
2018-08-11T10:49:54.836Z,19.8
2018-08-11T10:54:54.934Z,19.8
2018-08-11T10:59:54.995Z,19.8
2018-08-11T11:04:54.624Z,20.4
2018-08-11T11:09:54.666Z,20.1
2018-08-11T11:14:54.870Z,20.1
2018-08-11T11:19:54.898Z,20.3
2018-08-11T11:24:54.795Z,20.2
2018-08-11T11:29:54.916Z,20.3
2018-08-11T11:34:54.868Z,20.3
2018-08-11T11:39:54.996Z,20.3
2018-08-11T11:44:54.583Z,20.3
2018-08-11T11:49:54.681Z,20.3
2018-08-11T11:54:54.599Z,20.3
2018-08-11T11:59:54.652Z,20.3
2018-08-11T12:04:54.573Z,20.8
2018-08-11T12:09:54.689Z,20.8
2018-08-11T12:14:54.669Z,20.8
2018-08-11T12:19:54.881Z,21.1
2018-08-11T12:24:54.825Z,21.1
2018-08-11T12:29:54.880Z,21.1
2018-08-11T12:34:54.812Z,21.1
2018-08-11T12:39:54.510Z,21.1
2018-08-11T12:44:54.828Z,21.1
2018-08-11T12:49:54.651Z,21.1
2018-08-11T12:54:54.689Z,21.1
2018-08-11T12:59:54.769Z,21.1
2018-08-11T13:04:54.612Z,21.1
2018-08-11T13:09:54.800Z,21.1
2018-08-11T13:14:54.517Z,21.1
2018-08-11T13:19:54.552Z,21.1
2018-08-11T13:24:54.636Z,21.1
2018-08-11T13:29:54.475Z,21.1
2018-08-11T13:34:54.449Z,21.1
2018-08-11T13:39:54.781Z,21.1
2018-08-11T13:44:54.643Z,21.1
2018-08-11T13:49:54.428Z,21.1
2018-08-11T13:54:54.501Z,21.1
2018-08-11T13:59:54.338Z,21.1
2018-08-11T14:04:54.501Z,21.1
2018-08-11T14:09:54.696Z,21.1
2018-08-11T14:14:54.571Z,21.1
2018-08-11T14:19:54.328Z,21.1
2018-08-11T14:24:54.396Z,21.1
2018-08-11T14:29:54.344Z,21.1
2018-08-11T14:34:54.363Z,21.1
2018-08-11T14:39:54.572Z,21.1
2018-08-11T14:44:54.464Z,21.1
2018-08-11T14:49:54.462Z,21.1
2018-08-11T14:54:54.263Z,21.1
2018-08-11T14:59:54.270Z,21.1
2018-08-11T15:04:54.339Z,21.1
2018-08-11T15:09:54.638Z,21.1
2018-08-11T15:14:54.520Z,21.1
2018-08-11T15:19:54.298Z,21.7
2018-08-11T15:24:54.545Z,21.9
2018-08-11T15:29:54.345Z,21.9
2018-08-11T15:34:54.327Z,21.6
2018-08-11T15:39:54.661Z,21.6
2018-08-11T15:44:54.460Z,21.6
2018-08-11T15:49:54.512Z,21.7
2018-08-11T15:54:54.346Z,21.6
2018-08-11T15:59:54.189Z,21.6
2018-08-11T16:04:54.479Z,21.6
2018-08-11T16:09:54.523Z,21.6
2018-08-11T16:14:54.197Z,21.6
2018-08-11T16:19:54.311Z,20.7
2018-08-11T16:24:54.364Z,20.7
2018-08-11T16:29:54.419Z,20.7
2018-08-11T16:34:54.171Z,20.7
2018-08-11T16:39:54.388Z,20.7
2018-08-11T16:44:54.441Z,20.7
2018-08-11T16:49:54.432Z,20.7
2018-08-11T16:54:54.325Z,20.7
2018-08-11T16:59:54.279Z,20.7
2018-08-11T17:04:54.338Z,20.7
2018-08-11T17:09:54.248Z,20.7
2018-08-11T17:14:54.082Z,20.7
2018-08-11T17:19:55.617Z,20.7
2018-08-11T17:24:54.270Z,20.7
2018-08-11T17:29:54.049Z,20.7
2018-08-11T17:34:54.235Z,20.7
2018-08-11T17:39:54.028Z,20.7
2018-08-11T17:44:54.342Z,20.7
2018-08-11T17:49:54.155Z,20.7
2018-08-11T17:54:54.177Z,20.7
2018-08-11T17:59:54.469Z,20.7
2018-08-11T18:04:54.142Z,20.7
2018-08-11T18:09:54.332Z,20.7
2018-08-11T18:14:54.005Z,20.7
2018-08-11T18:19:54.052Z,20.7
2018-08-11T18:24:54.039Z,20.7
2018-08-11T18:29:54.106Z,20.7
2018-08-11T18:34:54.109Z,20.7
2018-08-11T18:39:54.045Z,19.1
2018-08-11T18:44:54.299Z,18.9
2018-08-11T18:49:54.160Z,18.9
2018-08-11T18:54:54.168Z,18.8
2018-08-11T18:59:53.978Z,18.7
2018-08-11T19:04:54.386Z,18.7
2018-08-11T19:09:54.153Z,18.6
2018-08-11T19:14:54.163Z,18.5
2018-08-11T19:19:54.351Z,18.4
2018-08-11T19:24:53.973Z,18.3
2018-08-11T19:29:54.156Z,18.2
2018-08-11T19:34:54.029Z,18.2
2018-08-11T19:39:54.038Z,18.2
2018-08-11T19:44:53.848Z,18.2
2018-08-11T19:49:54.035Z,18.2
2018-08-11T19:54:53.892Z,18.2
2018-08-11T19:59:53.927Z,18.2
2018-08-11T20:04:54.115Z,18.2
2018-08-11T20:09:54.092Z,18.2
2018-08-11T20:14:53.841Z,18.2
2018-08-11T20:19:54.002Z,18.2
2018-08-11T20:24:54.062Z,18.2
2018-08-11T20:29:54.160Z,18.2
2018-08-11T20:34:54.289Z,18.2
2018-08-11T20:39:53.889Z,18.2
2018-08-11T20:44:53.818Z,18.2
2018-08-11T20:49:53.862Z,18.2
2018-08-11T20:54:53.801Z,18.2
2018-08-11T20:59:54.072Z,18.2
2018-08-11T21:04:53.786Z,18.2
2018-08-11T21:09:54.102Z,18.2
2018-08-11T21:14:54.030Z,18.2
2018-08-11T21:19:53.828Z,18.2
2018-08-11T21:24:53.993Z,18.2
2018-08-11T21:29:53.751Z,18.2
2018-08-11T21:34:54.008Z,18.2
2018-08-11T21:39:54.089Z,18.2
2018-08-11T21:44:54.003Z,18.2
2018-08-11T21:49:53.734Z,18.2
2018-08-11T21:54:53.730Z,18.2
2018-08-11T21:59:53.954Z,18.2
2018-08-11T22:04:53.659Z,18.2
2018-08-11T22:09:53.961Z,18.2
2018-08-11T22:14:53.698Z,18.2
2018-08-11T22:19:53.650Z,18.2
2018-08-11T22:24:53.867Z,18.2
2018-08-11T22:29:53.677Z,18.2
2018-08-11T22:34:53.881Z,18.2
2018-08-11T22:39:53.742Z,18.2
2018-08-11T22:44:53.861Z,18.2
2018-08-11T22:49:53.729Z,18.2
2018-08-11T22:54:53.622Z,18.2
2018-08-11T22:59:53.686Z,18.2
2018-08-11T23:04:53.621Z,18.2
2018-08-11T23:09:53.544Z,18.2
2018-08-11T23:14:53.685Z,18.2
2018-08-11T23:19:53.750Z,18.2
2018-08-11T23:24:53.633Z,18.2
2018-08-11T23:29:53.766Z,18.2
2018-08-11T23:34:53.516Z,18.2
2018-08-11T23:39:53.544Z,18.2
2018-08-11T23:44:53.559Z,18.2
2018-08-11T23:49:53.816Z,18.2
2018-08-11T23:54:53.626Z,18.2
2018-08-11T23:59:53.572Z,18.2
